sensor_id;sensor_type;location;lat;lon;timestamp;temperature;humidity
11055;DHT22;5580;50.106;8.702;2023-07-09T00:01:16;26.20;87.40
11055;DHT22;5580;50.106;8.702;2023-07-09T00:03:46;26.10;87.90
11055;DHT22;5580;50.106;8.702;2023-07-09T00:06:17;26.10;88.20
11055;DHT22;5580;50.106;8.702;2023-07-09T00:08:44;26.10;89.10
11055;DHT22;5580;50.106;8.702;2023-07-09T00:11:12;26.10;88.30
11055;DHT22;5580;50.106;8.702;2023-07-09T00:13:37;26.00;88.30
11055;DHT22;5580;50.106;8.702;2023-07-09T00:16:11;26.00;88.70
11055;DHT22;5580;50.106;8.702;2023-07-09T00:18:37;26.00;88.80
11055;DHT22;5580;50.106;8.702;2023-07-09T00:21:03;25.90;88.70
11055;DHT22;5580;50.106;8.702;2023-07-09T00:23:29;25.90;88.90
11055;DHT22;5580;50.106;8.702;2023-07-09T00:25:55;25.90;89.30
11055;DHT22;5580;50.106;8.702;2023-07-09T00:28:21;25.90;90.10
11055;DHT22;5580;50.106;8.702;2023-07-09T00:30:48;25.90;89.70
11055;DHT22;5580;50.106;8.702;2023-07-09T00:33:15;25.80;90.00
11055;DHT22;5580;50.106;8.702;2023-07-09T00:35:45;25.80;90.00
11055;DHT22;5580;50.106;8.702;2023-07-09T00:38:22;25.80;89.90
11055;DHT22;5580;50.106;8.702;2023-07-09T00:41:02;25.80;89.90
11055;DHT22;5580;50.106;8.702;2023-07-09T00:43:34;25.80;89.90
11055;DHT22;5580;50.106;8.702;2023-07-09T00:48:56;25.70;90.00
11055;DHT22;5580;50.106;8.702;2023-07-09T00:51:26;25.70;90.10
11055;DHT22;5580;50.106;8.702;2023-07-09T00:53:57;25.60;90.10
11055;DHT22;5580;50.106;8.702;2023-07-09T00:56:31;25.60;90.20
11055;DHT22;5580;50.106;8.702;2023-07-09T00:59:00;25.60;90.40
11055;DHT22;5580;50.106;8.702;2023-07-09T01:01:30;25.60;90.60
11055;DHT22;5580;50.106;8.702;2023-07-09T01:03:58;25.60;90.60
11055;DHT22;5580;50.106;8.702;2023-07-09T01:06:37;25.50;90.70
11055;DHT22;5580;50.106;8.702;2023-07-09T01:09:06;25.50;90.90
11055;DHT22;5580;50.106;8.702;2023-07-09T01:11:33;25.40;91.00
11055;DHT22;5580;50.106;8.702;2023-07-09T01:14:01;25.40;91.10
11055;DHT22;5580;50.106;8.702;2023-07-09T01:16:30;25.40;91.30
11055;DHT22;5580;50.106;8.702;2023-07-09T01:18:57;25.40;91.30
11055;DHT22;5580;50.106;8.702;2023-07-09T01:21:23;25.40;91.40
11055;DHT22;5580;50.106;8.702;2023-07-09T01:23:50;25.30;91.50
11055;DHT22;5580;50.106;8.702;2023-07-09T01:26:23;25.30;91.60
11055;DHT22;5580;50.106;8.702;2023-07-09T01:28:55;25.30;91.60
11055;DHT22;5580;50.106;8.702;2023-07-09T01:31:22;25.30;91.50
11055;DHT22;5580;50.106;8.702;2023-07-09T01:33:48;25.30;91.50
11055;DHT22;5580;50.106;8.702;2023-07-09T01:36:20;25.20;91.40
11055;DHT22;5580;50.106;8.702;2023-07-09T01:38:50;25.20;91.50
11055;DHT22;5580;50.106;8.702;2023-07-09T01:41:16;25.20;91.70
11055;DHT22;5580;50.106;8.702;2023-07-09T01:43:43;25.10;91.70
11055;DHT22;5580;50.106;8.702;2023-07-09T01:46:10;25.10;91.80
11055;DHT22;5580;50.106;8.702;2023-07-09T01:48:38;25.10;91.80
11055;DHT22;5580;50.106;8.702;2023-07-09T01:51:08;25.10;91.70
11055;DHT22;5580;50.106;8.702;2023-07-09T01:53:34;25.10;91.80
11055;DHT22;5580;50.106;8.702;2023-07-09T01:56:02;24.90;91.70
11055;DHT22;5580;50.106;8.702;2023-07-09T01:58:28;24.90;91.80
11055;DHT22;5580;50.106;8.702;2023-07-09T02:00:57;24.90;91.90
11055;DHT22;5580;50.106;8.702;2023-07-09T02:03:23;24.90;91.90
11055;DHT22;5580;50.106;8.702;2023-07-09T02:05:53;24.90;91.90
11055;DHT22;5580;50.106;8.702;2023-07-09T02:08:19;24.90;92.00
11055;DHT22;5580;50.106;8.702;2023-07-09T02:10:47;24.90;92.10
11055;DHT22;5580;50.106;8.702;2023-07-09T02:13:13;24.90;92.20
11055;DHT22;5580;50.106;8.702;2023-07-09T02:15:39;24.90;92.20
11055;DHT22;5580;50.106;8.702;2023-07-09T02:18:09;24.80;92.30
11055;DHT22;5580;50.106;8.702;2023-07-09T02:20:34;24.80;92.30
11055;DHT22;5580;50.106;8.702;2023-07-09T02:23:00;24.80;92.30
11055;DHT22;5580;50.106;8.702;2023-07-09T02:25:25;24.60;92.30
11055;DHT22;5580;50.106;8.702;2023-07-09T02:27:51;24.60;92.50
11055;DHT22;5580;50.106;8.702;2023-07-09T02:30:16;24.60;92.60
11055;DHT22;5580;50.106;8.702;2023-07-09T02:32:42;24.60;92.60
11055;DHT22;5580;50.106;8.702;2023-07-09T02:35:08;24.60;92.70
11055;DHT22;5580;50.106;8.702;2023-07-09T02:37:34;24.50;92.70
11055;DHT22;5580;50.106;8.702;2023-07-09T02:39:59;24.50;92.80
11055;DHT22;5580;50.106;8.702;2023-07-09T02:42:25;24.50;92.90
11055;DHT22;5580;50.106;8.702;2023-07-09T02:44:51;24.50;93.00
11055;DHT22;5580;50.106;8.702;2023-07-09T02:47:17;24.40;93.00
11055;DHT22;5580;50.106;8.702;2023-07-09T02:49:43;24.40;93.10
11055;DHT22;5580;50.106;8.702;2023-07-09T02:52:08;24.30;93.20
11055;DHT22;5580;50.106;8.702;2023-07-09T02:54:34;24.40;93.30
11055;DHT22;5580;50.106;8.702;2023-07-09T02:57:00;24.30;93.40
11055;DHT22;5580;50.106;8.702;2023-07-09T02:59:25;24.20;93.30
11055;DHT22;5580;50.106;8.702;2023-07-09T03:01:54;24.10;93.60
11055;DHT22;5580;50.106;8.702;2023-07-09T03:04:20;24.00;93.90
11055;DHT22;5580;50.106;8.702;2023-07-09T03:06:46;23.80;94.30
11055;DHT22;5580;50.106;8.702;2023-07-09T03:09:12;23.70;94.90
11055;DHT22;5580;50.106;8.702;2023-07-09T03:11:38;23.50;95.10
11055;DHT22;5580;50.106;8.702;2023-07-09T03:14:04;23.40;95.30
11055;DHT22;5580;50.106;8.702;2023-07-09T03:16:32;23.30;95.40
11055;DHT22;5580;50.106;8.702;2023-07-09T03:18:58;23.30;95.70
11055;DHT22;5580;50.106;8.702;2023-07-09T03:21:25;23.30;95.90
11055;DHT22;5580;50.106;8.702;2023-07-09T03:23:51;23.30;96.30
11055;DHT22;5580;50.106;8.702;2023-07-09T03:26:17;23.20;96.60
11055;DHT22;5580;50.106;8.702;2023-07-09T03:28:43;23.20;96.60
11055;DHT22;5580;50.106;8.702;2023-07-09T03:31:08;23.30;96.60
11055;DHT22;5580;50.106;8.702;2023-07-09T03:33:34;23.40;96.60
11055;DHT22;5580;50.106;8.702;2023-07-09T03:36:00;23.50;96.60
11055;DHT22;5580;50.106;8.702;2023-07-09T03:38:25;23.50;96.50
11055;DHT22;5580;50.106;8.702;2023-07-09T03:40:52;23.60;96.50
11055;DHT22;5580;50.106;8.702;2023-07-09T03:43:18;23.60;96.40
11055;DHT22;5580;50.106;8.702;2023-07-09T03:45:45;23.50;96.50
11055;DHT22;5580;50.106;8.702;2023-07-09T03:48:12;23.50;96.60
11055;DHT22;5580;50.106;8.702;2023-07-09T03:50:37;23.60;96.70
11055;DHT22;5580;50.106;8.702;2023-07-09T03:53:03;23.60;96.70
11055;DHT22;5580;50.106;8.702;2023-07-09T03:55:31;23.60;96.80
11055;DHT22;5580;50.106;8.702;2023-07-09T03:57:56;23.60;96.90
11055;DHT22;5580;50.106;8.702;2023-07-09T04:00:23;23.60;97.00
11055;DHT22;5580;50.106;8.702;2023-07-09T04:02:51;23.70;97.10
11055;DHT22;5580;50.106;8.702;2023-07-09T04:05:17;23.60;97.00
11055;DHT22;5580;50.106;8.702;2023-07-09T04:07:43;23.60;97.20
11055;DHT22;5580;50.106;8.702;2023-07-09T04:10:09;23.60;97.40
11055;DHT22;5580;50.106;8.702;2023-07-09T04:12:35;23.50;97.50
11055;DHT22;5580;50.106;8.702;2023-07-09T04:15:05;23.50;97.50
11055;DHT22;5580;50.106;8.702;2023-07-09T04:17:31;23.60;97.50
11055;DHT22;5580;50.106;8.702;2023-07-09T04:19:57;23.60;97.40
11055;DHT22;5580;50.106;8.702;2023-07-09T04:22:22;23.70;97.70
11055;DHT22;5580;50.106;8.702;2023-07-09T04:24:48;23.70;97.70
11055;DHT22;5580;50.106;8.702;2023-07-09T04:27:15;23.70;97.80
11055;DHT22;5580;50.106;8.702;2023-07-09T04:29:41;23.60;97.70
11055;DHT22;5580;50.106;8.702;2023-07-09T04:32:07;23.60;97.80
11055;DHT22;5580;50.106;8.702;2023-07-09T04:34:36;23.60;97.90
11055;DHT22;5580;50.106;8.702;2023-07-09T04:37:06;23.70;98.00
11055;DHT22;5580;50.106;8.702;2023-07-09T04:39:32;23.70;98.00
11055;DHT22;5580;50.106;8.702;2023-07-09T04:41:58;23.80;98.00
11055;DHT22;5580;50.106;8.702;2023-07-09T04:44:23;23.80;98.20
11055;DHT22;5580;50.106;8.702;2023-07-09T04:46:50;23.70;98.40
11055;DHT22;5580;50.106;8.702;2023-07-09T04:49:16;23.80;98.40
11055;DHT22;5580;50.106;8.702;2023-07-09T04:51:41;23.90;98.30
11055;DHT22;5580;50.106;8.702;2023-07-09T04:54:07;24.00;98.30
11055;DHT22;5580;50.106;8.702;2023-07-09T04:56:32;24.10;98.20
11055;DHT22;5580;50.106;8.702;2023-07-09T04:58:59;24.20;98.20
11055;DHT22;5580;50.106;8.702;2023-07-09T05:01:25;24.20;98.20
11055;DHT22;5580;50.106;8.702;2023-07-09T05:03:50;24.30;98.30
11055;DHT22;5580;50.106;8.702;2023-07-09T05:06:16;24.30;98.30
11055;DHT22;5580;50.106;8.702;2023-07-09T05:08:42;24.40;98.40
11055;DHT22;5580;50.106;8.702;2023-07-09T05:11:09;24.40;98.40
11055;DHT22;5580;50.106;8.702;2023-07-09T05:13:36;24.50;98.70
11055;DHT22;5580;50.106;8.702;2023-07-09T05:16:02;24.50;98.90
11055;DHT22;5580;50.106;8.702;2023-07-09T05:18:27;24.40;98.90
11055;DHT22;5580;50.106;8.702;2023-07-09T05:20:53;24.50;98.90
11055;DHT22;5580;50.106;8.702;2023-07-09T05:23:18;24.60;98.90
11055;DHT22;5580;50.106;8.702;2023-07-09T05:25:44;24.60;99.50
11055;DHT22;5580;50.106;8.702;2023-07-09T05:28:09;24.60;99.90
11055;DHT22;5580;50.106;8.702;2023-07-09T05:30:35;24.50;99.90
11055;DHT22;5580;50.106;8.702;2023-07-09T05:33:01;24.40;99.90
11055;DHT22;5580;50.106;8.702;2023-07-09T05:35:27;24.40;99.90
11055;DHT22;5580;50.106;8.702;2023-07-09T05:37:53;24.50;99.90
11055;DHT22;5580;50.106;8.702;2023-07-09T05:40:20;24.50;99.90
11055;DHT22;5580;50.106;8.702;2023-07-09T05:42:48;24.50;99.90
11055;DHT22;5580;50.106;8.702;2023-07-09T05:45:14;24.30;99.90
11055;DHT22;5580;50.106;8.702;2023-07-09T05:47:40;24.30;99.90
11055;DHT22;5580;50.106;8.702;2023-07-09T05:50:06;24.20;99.90
11055;DHT22;5580;50.106;8.702;2023-07-09T05:52:31;24.20;99.90
11055;DHT22;5580;50.106;8.702;2023-07-09T05:54:57;24.20;99.90
11055;DHT22;5580;50.106;8.702;2023-07-09T05:57:24;24.20;99.90
11055;DHT22;5580;50.106;8.702;2023-07-09T05:59:50;24.20;99.90
11055;DHT22;5580;50.106;8.702;2023-07-09T06:02:18;24.20;99.90
11055;DHT22;5580;50.106;8.702;2023-07-09T06:04:44;24.30;99.90
11055;DHT22;5580;50.106;8.702;2023-07-09T06:07:11;24.30;99.90
11055;DHT22;5580;50.106;8.702;2023-07-09T06:09:39;24.50;99.90
11055;DHT22;5580;50.106;8.702;2023-07-09T06:12:05;24.70;99.90
11055;DHT22;5580;50.106;8.702;2023-07-09T06:14:31;25.10;99.90
11055;DHT22;5580;50.106;8.702;2023-07-09T06:16:57;25.40;99.90
11055;DHT22;5580;50.106;8.702;2023-07-09T06:19:24;25.60;99.90
11055;DHT22;5580;50.106;8.702;2023-07-09T06:21:49;25.80;99.90
11055;DHT22;5580;50.106;8.702;2023-07-09T06:24:15;26.00;99.90
11055;DHT22;5580;50.106;8.702;2023-07-09T06:26:40;26.00;99.90
11055;DHT22;5580;50.106;8.702;2023-07-09T06:29:06;26.00;99.90
11055;DHT22;5580;50.106;8.702;2023-07-09T06:31:31;26.00;99.90
11055;DHT22;5580;50.106;8.702;2023-07-09T06:33:57;26.00;99.90
11055;DHT22;5580;50.106;8.702;2023-07-09T06:36:23;26.10;99.90
11055;DHT22;5580;50.106;8.702;2023-07-09T06:38:48;26.00;99.90
11055;DHT22;5580;50.106;8.702;2023-07-09T06:41:15;25.90;99.90
11055;DHT22;5580;50.106;8.702;2023-07-09T06:43:40;25.80;99.90
11055;DHT22;5580;50.106;8.702;2023-07-09T06:46:08;25.80;99.90
11055;DHT22;5580;50.106;8.702;2023-07-09T06:48:35;25.70;99.90
11055;DHT22;5580;50.106;8.702;2023-07-09T06:51:01;25.60;99.90
11055;DHT22;5580;50.106;8.702;2023-07-09T06:53:28;25.50;99.90
11055;DHT22;5580;50.106;8.702;2023-07-09T06:55:54;25.40;99.90
11055;DHT22;5580;50.106;8.702;2023-07-09T06:58:21;25.40;99.90
11055;DHT22;5580;50.106;8.702;2023-07-09T07:00:51;25.40;99.90
11055;DHT22;5580;50.106;8.702;2023-07-09T07:03:17;25.40;99.90
11055;DHT22;5580;50.106;8.702;2023-07-09T07:05:44;25.40;99.90
11055;DHT22;5580;50.106;8.702;2023-07-09T07:08:10;25.50;99.90
11055;DHT22;5580;50.106;8.702;2023-07-09T07:10:36;25.60;99.90
11055;DHT22;5580;50.106;8.702;2023-07-09T07:13:02;25.70;99.90
11055;DHT22;5580;50.106;8.702;2023-07-09T07:15:27;25.80;99.90
11055;DHT22;5580;50.106;8.702;2023-07-09T07:17:53;25.90;99.90
11055;DHT22;5580;50.106;8.702;2023-07-09T07:20:19;26.00;99.90
11055;DHT22;5580;50.106;8.702;2023-07-09T07:22:44;26.00;99.60
11055;DHT22;5580;50.106;8.702;2023-07-09T07:25:10;26.10;99.60
11055;DHT22;5580;50.106;8.702;2023-07-09T07:27:37;26.30;99.80
11055;DHT22;5580;50.106;8.702;2023-07-09T07:30:03;26.50;99.60
11055;DHT22;5580;50.106;8.702;2023-07-09T07:32:29;26.60;99.70
11055;DHT22;5580;50.106;8.702;2023-07-09T07:34:54;26.70;99.60
11055;DHT22;5580;50.106;8.702;2023-07-09T07:37:20;26.80;99.60
11055;DHT22;5580;50.106;8.702;2023-07-09T07:39:47;27.00;99.50
11055;DHT22;5580;50.106;8.702;2023-07-09T07:42:13;27.10;99.20
11055;DHT22;5580;50.106;8.702;2023-07-09T07:44:38;27.20;98.90
11055;DHT22;5580;50.106;8.702;2023-07-09T07:47:04;27.20;98.70
11055;DHT22;5580;50.106;8.702;2023-07-09T07:49:30;27.30;98.90
11055;DHT22;5580;50.106;8.702;2023-07-09T07:51:56;27.40;98.40
11055;DHT22;5580;50.106;8.702;2023-07-09T07:54:21;27.50;98.40
11055;DHT22;5580;50.106;8.702;2023-07-09T07:56:47;27.60;98.20
11055;DHT22;5580;50.106;8.702;2023-07-09T07:59:13;27.70;98.30
11055;DHT22;5580;50.106;8.702;2023-07-09T08:01:39;27.80;98.20
11055;DHT22;5580;50.106;8.702;2023-07-09T08:04:05;27.90;97.90
11055;DHT22;5580;50.106;8.702;2023-07-09T08:06:31;28.00;97.60
11055;DHT22;5580;50.106;8.702;2023-07-09T08:08:57;28.10;97.30
11055;DHT22;5580;50.106;8.702;2023-07-09T08:11:23;28.20;97.20
11055;DHT22;5580;50.106;8.702;2023-07-09T08:13:49;28.30;97.00
11055;DHT22;5580;50.106;8.702;2023-07-09T08:16:15;28.40;96.80
11055;DHT22;5580;50.106;8.702;2023-07-09T08:18:41;28.50;96.80
11055;DHT22;5580;50.106;8.702;2023-07-09T08:21:06;28.60;96.50
11055;DHT22;5580;50.106;8.702;2023-07-09T08:23:32;28.70;96.30
11055;DHT22;5580;50.106;8.702;2023-07-09T08:25:59;28.70;96.40
11055;DHT22;5580;50.106;8.702;2023-07-09T08:28:27;28.70;96.30
11055;DHT22;5580;50.106;8.702;2023-07-09T08:30:53;28.80;96.10
11055;DHT22;5580;50.106;8.702;2023-07-09T08:33:19;28.80;95.90
11055;DHT22;5580;50.106;8.702;2023-07-09T08:35:45;28.80;95.80
11055;DHT22;5580;50.106;8.702;2023-07-09T08:38:11;28.90;95.80
11055;DHT22;5580;50.106;8.702;2023-07-09T08:40:40;28.90;95.90
11055;DHT22;5580;50.106;8.702;2023-07-09T08:43:17;29.00;95.90
11055;DHT22;5580;50.106;8.702;2023-07-09T08:46:01;29.00;95.80
11055;DHT22;5580;50.106;8.702;2023-07-09T08:48:34;29.10;95.60
11055;DHT22;5580;50.106;8.702;2023-07-09T08:53:58;29.10;95.50
11055;DHT22;5580;50.106;8.702;2023-07-09T08:56:25;29.10;95.20
11055;DHT22;5580;50.106;8.702;2023-07-09T08:58:54;29.10;95.20
11055;DHT22;5580;50.106;8.702;2023-07-09T09:01:24;29.10;95.00
11055;DHT22;5580;50.106;8.702;2023-07-09T09:03:54;29.20;94.80
11055;DHT22;5580;50.106;8.702;2023-07-09T09:06:26;29.20;94.70
11055;DHT22;5580;50.106;8.702;2023-07-09T09:14:44;29.30;94.50
11055;DHT22;5580;50.106;8.702;2023-07-09T09:17:28;29.40;94.30
11055;DHT22;5580;50.106;8.702;2023-07-09T09:20:01;29.40;94.40
11055;DHT22;5580;50.106;8.702;2023-07-09T09:22:40;29.40;94.00
11055;DHT22;5580;50.106;8.702;2023-07-09T09:25:30;29.50;94.10
11055;DHT22;5580;50.106;8.702;2023-07-09T09:27:58;29.60;94.10
11055;DHT22;5580;50.106;8.702;2023-07-09T09:30:25;29.70;94.00
11055;DHT22;5580;50.106;8.702;2023-07-09T09:32:55;29.70;93.60
11055;DHT22;5580;50.106;8.702;2023-07-09T09:35:31;29.80;93.50
11055;DHT22;5580;50.106;8.702;2023-07-09T09:37:58;29.80;93.40
11055;DHT22;5580;50.106;8.702;2023-07-09T09:40:25;29.80;93.20
11055;DHT22;5580;50.106;8.702;2023-07-09T09:42:52;29.90;93.00
11055;DHT22;5580;50.106;8.702;2023-07-09T09:45:24;30.00;92.80
11055;DHT22;5580;50.106;8.702;2023-07-09T09:47:49;30.20;92.90
11055;DHT22;5580;50.106;8.702;2023-07-09T09:50:21;30.20;92.50
11055;DHT22;5580;50.106;8.702;2023-07-09T09:52:48;30.30;92.10
11055;DHT22;5580;50.106;8.702;2023-07-09T09:55:24;30.40;92.30
11055;DHT22;5580;50.106;8.702;2023-07-09T09:57:52;30.50;92.30
11055;DHT22;5580;50.106;8.702;2023-07-09T10:00:22;30.60;92.50
11055;DHT22;5580;50.106;8.702;2023-07-09T10:02:48;30.60;92.90
11055;DHT22;5580;50.106;8.702;2023-07-09T10:05:15;30.70;92.50
11055;DHT22;5580;50.106;8.702;2023-07-09T10:07:52;30.80;92.10
11055;DHT22;5580;50.106;8.702;2023-07-09T10:10:23;30.90;92.00
11055;DHT22;5580;50.106;8.702;2023-07-09T10:12:52;30.90;92.10
11055;DHT22;5580;50.106;8.702;2023-07-09T10:15:45;31.00;92.40
11055;DHT22;5580;50.106;8.702;2023-07-09T10:21:15;31.00;91.50
11055;DHT22;5580;50.106;8.702;2023-07-09T10:29:26;31.00;91.30
11055;DHT22;5580;50.106;8.702;2023-07-09T10:34:35;31.10;91.10
11055;DHT22;5580;50.106;8.702;2023-07-09T10:39:45;31.00;90.90
11055;DHT22;5580;50.106;8.702;2023-07-09T10:42:26;31.10;90.40
11055;DHT22;5580;50.106;8.702;2023-07-09T10:47:52;31.20;90.00
11055;DHT22;5580;50.106;8.702;2023-07-09T10:50:33;31.20;90.30
11055;DHT22;5580;50.106;8.702;2023-07-09T10:53:51;31.20;90.40
11055;DHT22;5580;50.106;8.702;2023-07-09T10:55:55;31.20;90.20
11055;DHT22;5580;50.106;8.702;2023-07-09T10:58:39;31.20;89.80
11055;DHT22;5580;50.106;8.702;2023-07-09T11:01:06;31.30;89.80
11055;DHT22;5580;50.106;8.702;2023-07-09T11:03:49;31.30;90.00
11055;DHT22;5580;50.106;8.702;2023-07-09T11:06:43;31.40;89.50
11055;DHT22;5580;50.106;8.702;2023-07-09T11:09:20;31.40;89.30
11055;DHT22;5580;50.106;8.702;2023-07-09T11:11:50;31.40;89.10
11055;DHT22;5580;50.106;8.702;2023-07-09T11:14:30;31.50;88.90
11055;DHT22;5580;50.106;8.702;2023-07-09T11:16:58;31.50;88.30
11055;DHT22;5580;50.106;8.702;2023-07-09T11:19:25;31.40;87.70
11055;DHT22;5580;50.106;8.702;2023-07-09T11:22:21;31.40;87.70
11055;DHT22;5580;50.106;8.702;2023-07-09T11:27:31;31.40;87.00
11055;DHT22;5580;50.106;8.702;2023-07-09T11:30:00;31.40;86.90
11055;DHT22;5580;50.106;8.702;2023-07-09T11:32:27;31.50;86.20
11055;DHT22;5580;50.106;8.702;2023-07-09T11:34:53;31.50;85.10
11055;DHT22;5580;50.106;8.702;2023-07-09T11:37:25;31.50;85.60
11055;DHT22;5580;50.106;8.702;2023-07-09T11:39:51;31.60;84.30
11055;DHT22;5580;50.106;8.702;2023-07-09T11:42:30;31.50;83.50
11055;DHT22;5580;50.106;8.702;2023-07-09T11:45:11;31.60;83.90
11055;DHT22;5580;50.106;8.702;2023-07-09T11:47:51;31.60;84.70
11055;DHT22;5580;50.106;8.702;2023-07-09T11:53:00;31.50;82.70
11055;DHT22;5580;50.106;8.702;2023-07-09T11:55:42;31.50;82.50
11055;DHT22;5580;50.106;8.702;2023-07-09T11:58:12;31.50;82.30
11055;DHT22;5580;50.106;8.702;2023-07-09T12:00:46;31.50;81.40
11055;DHT22;5580;50.106;8.702;2023-07-09T12:05:56;31.60;81.80
11055;DHT22;5580;50.106;8.702;2023-07-09T12:08:34;31.60;80.90
11055;DHT22;5580;50.106;8.702;2023-07-09T12:11:00;31.60;80.70
11055;DHT22;5580;50.106;8.702;2023-07-09T12:13:25;31.60;80.00
11055;DHT22;5580;50.106;8.702;2023-07-09T12:15:51;31.60;80.00
11055;DHT22;5580;50.106;8.702;2023-07-09T12:18:17;31.70;80.00
11055;DHT22;5580;50.106;8.702;2023-07-09T12:20:49;31.70;79.20
11055;DHT22;5580;50.106;8.702;2023-07-09T12:23:24;31.70;80.00
11055;DHT22;5580;50.106;8.702;2023-07-09T12:25:51;31.70;80.80
11055;DHT22;5580;50.106;8.702;2023-07-09T12:28:18;31.70;80.70
11055;DHT22;5580;50.106;8.702;2023-07-09T12:30:48;31.80;80.80
11055;DHT22;5580;50.106;8.702;2023-07-09T12:33:23;31.80;80.00
11055;DHT22;5580;50.106;8.702;2023-07-09T12:35:57;31.90;79.30
11055;DHT22;5580;50.106;8.702;2023-07-09T12:38:25;31.90;79.30
11055;DHT22;5580;50.106;8.702;2023-07-09T12:40:52;32.00;79.30
11055;DHT22;5580;50.106;8.702;2023-07-09T12:43:25;32.00;78.70
11055;DHT22;5580;50.106;8.702;2023-07-09T12:45:56;32.10;78.20
11055;DHT22;5580;50.106;8.702;2023-07-09T12:48:25;32.10;77.60
11055;DHT22;5580;50.106;8.702;2023-07-09T12:50:55;32.10;77.30
11055;DHT22;5580;50.106;8.702;2023-07-09T12:53:24;32.10;77.50
11055;DHT22;5580;50.106;8.702;2023-07-09T12:55:54;32.20;76.40
11055;DHT22;5580;50.106;8.702;2023-07-09T12:58:22;32.20;76.60
11055;DHT22;5580;50.106;8.702;2023-07-09T13:00:53;32.20;76.50
11055;DHT22;5580;50.106;8.702;2023-07-09T13:03:21;32.20;76.60
11055;DHT22;5580;50.106;8.702;2023-07-09T13:06:23;32.20;75.60
11055;DHT22;5580;50.106;8.702;2023-07-09T13:08:58;32.20;74.80
11055;DHT22;5580;50.106;8.702;2023-07-09T13:11:25;32.20;75.40
11055;DHT22;5580;50.106;8.702;2023-07-09T13:14:04;32.20;75.60
11055;DHT22;5580;50.106;8.702;2023-07-09T13:16:37;32.20;76.00
11055;DHT22;5580;50.106;8.702;2023-07-09T13:19:02;32.30;75.40
11055;DHT22;5580;50.106;8.702;2023-07-09T13:21:28;32.40;74.80
11055;DHT22;5580;50.106;8.702;2023-07-09T13:23:55;32.40;74.30
11055;DHT22;5580;50.106;8.702;2023-07-09T13:26:20;32.40;74.20
11055;DHT22;5580;50.106;8.702;2023-07-09T13:28:46;32.40;73.60
11055;DHT22;5580;50.106;8.702;2023-07-09T13:31:19;32.50;74.50
11055;DHT22;5580;50.106;8.702;2023-07-09T13:33:52;32.50;73.10
11055;DHT22;5580;50.106;8.702;2023-07-09T13:36:19;32.50;73.10
11055;DHT22;5580;50.106;8.702;2023-07-09T13:38:44;32.40;73.20
11055;DHT22;5580;50.106;8.702;2023-07-09T13:41:15;32.50;74.10
11055;DHT22;5580;50.106;8.702;2023-07-09T13:43:44;32.40;73.80
11055;DHT22;5580;50.106;8.702;2023-07-09T13:46:10;32.40;74.10
11055;DHT22;5580;50.106;8.702;2023-07-09T13:48:37;32.40;74.50
11055;DHT22;5580;50.106;8.702;2023-07-09T13:51:21;32.40;75.10
11055;DHT22;5580;50.106;8.702;2023-07-09T13:53:49;32.50;75.30
11055;DHT22;5580;50.106;8.702;2023-07-09T13:56:16;32.50;75.10
11055;DHT22;5580;50.106;8.702;2023-07-09T13:58:41;32.50;75.10
11055;DHT22;5580;50.106;8.702;2023-07-09T14:01:14;32.40;75.30
11055;DHT22;5580;50.106;8.702;2023-07-09T14:03:41;32.50;75.30
11055;DHT22;5580;50.106;8.702;2023-07-09T14:06:12;32.50;75.40
11055;DHT22;5580;50.106;8.702;2023-07-09T14:08:38;32.50;75.30
11055;DHT22;5580;50.106;8.702;2023-07-09T14:11:12;32.60;74.00
11055;DHT22;5580;50.106;8.702;2023-07-09T14:13:38;32.60;73.60
11055;DHT22;5580;50.106;8.702;2023-07-09T14:16:05;32.70;73.50
11055;DHT22;5580;50.106;8.702;2023-07-09T14:18:31;32.70;71.10
11055;DHT22;5580;50.106;8.702;2023-07-09T14:20:56;32.70;70.90
11055;DHT22;5580;50.106;8.702;2023-07-09T14:23:22;32.70;71.30
11055;DHT22;5580;50.106;8.702;2023-07-09T14:25:48;32.70;72.00
11055;DHT22;5580;50.106;8.702;2023-07-09T14:28:19;32.70;72.80
11055;DHT22;5580;50.106;8.702;2023-07-09T14:30:46;32.80;72.90
11055;DHT22;5580;50.106;8.702;2023-07-09T14:33:16;32.80;73.40
11055;DHT22;5580;50.106;8.702;2023-07-09T14:35:43;32.70;73.10
11055;DHT22;5580;50.106;8.702;2023-07-09T14:38:22;32.80;73.40
11055;DHT22;5580;50.106;8.702;2023-07-09T14:40:49;32.80;73.30
11055;DHT22;5580;50.106;8.702;2023-07-09T14:43:15;32.80;73.10
11055;DHT22;5580;50.106;8.702;2023-07-09T14:45:41;32.90;72.90
11055;DHT22;5580;50.106;8.702;2023-07-09T14:48:18;33.00;72.20
11055;DHT22;5580;50.106;8.702;2023-07-09T14:50:45;33.10;72.60
11055;DHT22;5580;50.106;8.702;2023-07-09T14:53:25;33.00;73.20
11055;DHT22;5580;50.106;8.702;2023-07-09T14:55:52;33.10;73.30
11055;DHT22;5580;50.106;8.702;2023-07-09T14:58:19;33.00;72.20
11055;DHT22;5580;50.106;8.702;2023-07-09T15:00:46;33.00;72.00
11055;DHT22;5580;50.106;8.702;2023-07-09T15:03:21;33.00;73.10
11055;DHT22;5580;50.106;8.702;2023-07-09T15:05:48;33.00;73.20
11055;DHT22;5580;50.106;8.702;2023-07-09T15:08:16;32.90;73.10
11055;DHT22;5580;50.106;8.702;2023-07-09T15:10:42;32.90;73.10
11055;DHT22;5580;50.106;8.702;2023-07-09T15:15:42;32.80;73.40
11055;DHT22;5580;50.106;8.702;2023-07-09T15:18:11;32.80;72.40
11055;DHT22;5580;50.106;8.702;2023-07-09T15:20:37;32.90;72.40
11055;DHT22;5580;50.106;8.702;2023-07-09T15:23:04;32.80;71.90
11055;DHT22;5580;50.106;8.702;2023-07-09T15:25:30;32.80;71.70
11055;DHT22;5580;50.106;8.702;2023-07-09T15:27:58;32.80;71.90
11055;DHT22;5580;50.106;8.702;2023-07-09T15:30:26;32.80;71.70
11055;DHT22;5580;50.106;8.702;2023-07-09T15:32:57;32.80;71.90
11055;DHT22;5580;50.106;8.702;2023-07-09T15:35:23;32.90;72.10
11055;DHT22;5580;50.106;8.702;2023-07-09T15:37:50;32.90;72.20
11055;DHT22;5580;50.106;8.702;2023-07-09T15:40:21;32.80;71.80
11055;DHT22;5580;50.106;8.702;2023-07-09T15:42:48;32.90;71.50
11055;DHT22;5580;50.106;8.702;2023-07-09T15:45:16;32.90;72.40
11055;DHT22;5580;50.106;8.702;2023-07-09T15:47:42;33.00;72.10
11055;DHT22;5580;50.106;8.702;2023-07-09T15:52:49;33.00;70.80
11055;DHT22;5580;50.106;8.702;2023-07-09T15:57:46;33.10;69.80
11055;DHT22;5580;50.106;8.702;2023-07-09T16:00:21;33.20;69.50
11055;DHT22;5580;50.106;8.702;2023-07-09T16:02:48;33.20;69.90
11055;DHT22;5580;50.106;8.702;2023-07-09T16:07:54;32.80;69.90
11055;DHT22;5580;50.106;8.702;2023-07-09T16:10:21;32.70;70.10
11055;DHT22;5580;50.106;8.702;2023-07-09T16:12:48;32.60;70.30
11055;DHT22;5580;50.106;8.702;2023-07-09T16:15:16;32.50;70.60
11055;DHT22;5580;50.106;8.702;2023-07-09T16:17:43;32.50;70.60
11055;DHT22;5580;50.106;8.702;2023-07-09T16:20:10;32.50;70.90
11055;DHT22;5580;50.106;8.702;2023-07-09T16:22:41;32.40;70.80
11055;DHT22;5580;50.106;8.702;2023-07-09T16:25:21;32.40;70.90
11055;DHT22;5580;50.106;8.702;2023-07-09T16:27:48;32.40;71.10
11055;DHT22;5580;50.106;8.702;2023-07-09T16:30:22;32.30;71.10
11055;DHT22;5580;50.106;8.702;2023-07-09T16:32:49;32.30;71.00
11055;DHT22;5580;50.106;8.702;2023-07-09T16:35:18;32.30;71.50
11055;DHT22;5580;50.106;8.702;2023-07-09T16:37:45;32.30;72.10
11055;DHT22;5580;50.106;8.702;2023-07-09T16:40:17;32.20;72.70